createdAt,value
2022-10-13T00:01:45.281Z,68.62
2022-10-13T00:04:31.926Z,68.47
2022-10-13T00:07:18.553Z,68.09
2022-10-13T00:10:05.355Z,68.68
2022-10-13T00:12:52.047Z,68.43
2022-10-13T00:15:39.369Z,68.86
2022-10-13T00:18:26.028Z,68.86
2022-10-13T00:21:14.419Z,68.77
2022-10-13T00:24:01.132Z,69.01
2022-10-13T00:26:49.485Z,69.10
2022-10-13T00:29:36.197Z,68.93
2022-10-13T00:32:22.823Z,68.82
2022-10-13T00:35:09.514Z,68.92
2022-10-13T00:37:56.264Z,68.84
2022-10-13T00:40:43.869Z,69.18
2022-10-13T00:43:50.479Z,69.38
2022-10-13T00:46:37.302Z,68.89
2022-10-13T00:49:23.954Z,69.02
2022-10-13T00:52:10.619Z,68.87
2022-10-13T00:54:57.286Z,69.24
2022-10-13T00:57:44.009Z,69.43
2022-10-13T01:00:31.265Z,69.56
2022-10-13T01:03:20.971Z,69.46
2022-10-13T01:06:07.925Z,69.91
2022-10-13T01:08:54.836Z,69.31
2022-10-13T01:11:51.302Z,69.32
2022-10-13T01:14:53.792Z,69.85
2022-10-13T01:17:47.337Z,69.65
2022-10-13T01:20:37.235Z,69.63
2022-10-13T01:23:36.287Z,69.65
2022-10-13T01:26:41.101Z,69.61
2022-10-13T01:29:46.293Z,69.62
2022-10-13T01:32:42.804Z,69.81
2022-10-13T01:35:34.147Z,69.73
2022-10-13T01:38:30.053Z,69.70
2022-10-13T01:41:19.773Z,69.67
2022-10-13T01:44:06.618Z,69.71
2022-10-13T01:46:55.346Z,69.91
2022-10-13T01:49:42.010Z,69.70
2022-10-13T01:52:32.608Z,69.94
2022-10-13T01:55:19.341Z,69.83
2022-10-13T01:58:05.989Z,70.04
2022-10-13T02:01:00.289Z,69.71
2022-10-13T02:04:05.893Z,69.81
2022-10-13T02:06:58.341Z,69.87
2022-10-13T02:10:04.415Z,70.13
2022-10-13T02:12:52.402Z,69.99
2022-10-13T02:15:46.038Z,69.96
2022-10-13T02:18:33.697Z,69.84
2022-10-13T02:21:20.337Z,70.15
2022-10-13T02:24:07.448Z,70.16
2022-10-13T02:26:54.085Z,70.31
2022-10-13T02:29:55.109Z,70.21
2022-10-13T02:32:41.766Z,70.18
2022-10-13T02:35:28.515Z,70.13
2022-10-13T02:38:15.212Z,70.32
2022-10-13T02:41:02.676Z,70.41
2022-10-13T02:43:49.337Z,70.41
2022-10-13T02:46:35.979Z,70.52
2022-10-13T02:49:22.656Z,70.49
2022-10-13T02:52:09.354Z,70.45
2022-10-13T02:54:56.012Z,70.45
2022-10-13T02:57:42.734Z,70.65
2022-10-13T03:00:29.887Z,70.46
2022-10-13T03:03:16.562Z,70.63
2022-10-13T03:06:03.392Z,70.82
2022-10-13T03:08:50.292Z,70.90
2022-10-13T03:11:36.968Z,70.77
2022-10-13T03:14:23.630Z,70.82
2022-10-13T03:17:13.420Z,70.79
2022-10-13T03:20:00.337Z,70.69
2022-10-13T03:22:49.740Z,70.91
2022-10-13T03:25:36.772Z,70.92
2022-10-13T03:28:23.496Z,70.81
2022-10-13T03:31:11.106Z,70.87
2022-10-13T03:33:57.838Z,71.12
2022-10-13T03:36:44.519Z,71.15
2022-10-13T03:39:31.265Z,70.99
2022-10-13T03:42:18.260Z,70.91
2022-10-13T03:45:05.552Z,71.10
2022-10-13T03:47:52.223Z,71.17
2022-10-13T03:50:38.945Z,71.28
2022-10-13T03:53:25.834Z,71.16
2022-10-13T03:56:16.502Z,71.22
2022-10-13T03:59:04.915Z,71.03
2022-10-13T04:01:51.714Z,71.22
2022-10-13T04:04:38.689Z,71.06
2022-10-13T04:07:25.342Z,71.24
2022-10-13T04:10:12.019Z,71.17
2022-10-13T04:12:58.773Z,71.17
2022-10-13T04:15:45.491Z,71.34
2022-10-13T04:18:32.351Z,71.36
2022-10-13T04:21:18.990Z,71.10
2022-10-13T04:24:05.895Z,71.49
2022-10-13T04:26:52.556Z,71.23
2022-10-13T04:29:39.225Z,71.20
2022-10-13T04:32:25.879Z,71.24
2022-10-13T04:35:12.522Z,71.40
2022-10-13T04:37:59.267Z,71.48
2022-10-13T04:40:45.942Z,71.47
2022-10-13T04:43:32.868Z,71.32
2022-10-13T04:46:23.516Z,71.51
2022-10-13T04:49:10.212Z,71.25
2022-10-13T04:51:56.846Z,71.53
2022-10-13T04:54:43.489Z,71.33
2022-10-13T04:57:30.454Z,71.46
2022-10-13T05:00:17.297Z,71.40
2022-10-13T05:03:03.999Z,71.32
2022-10-13T05:05:50.781Z,71.69
2022-10-13T05:08:37.981Z,71.55
2022-10-13T05:11:25.402Z,71.51
2022-10-13T05:14:12.112Z,71.55
2022-10-13T05:16:58.779Z,71.41
2022-10-13T05:19:45.448Z,71.91
2022-10-13T05:22:32.344Z,71.78
2022-10-13T05:25:19.086Z,71.88
2022-10-13T05:28:06.244Z,72.00
2022-10-13T05:30:52.908Z,71.74
2022-10-13T05:33:39.678Z,71.54
2022-10-13T05:36:27.301Z,71.77
2022-10-13T05:39:13.953Z,71.91
2022-10-13T05:42:00.712Z,71.82
2022-10-13T05:44:47.435Z,71.78
2022-10-13T05:47:34.167Z,71.63
2022-10-13T05:50:20.801Z,72.18
2022-10-13T05:53:07.459Z,72.40
2022-10-13T05:55:54.154Z,72.95
2022-10-13T05:58:41.376Z,72.94
2022-10-13T06:01:28.060Z,73.02
2022-10-13T06:04:19.406Z,72.63
2022-10-13T06:07:06.046Z,72.74
2022-10-13T06:09:52.695Z,72.79
2022-10-13T06:12:39.395Z,72.94
2022-10-13T06:15:28.343Z,72.85
2022-10-13T06:18:15.171Z,73.86
2022-10-13T06:21:02.076Z,74.08
2022-10-13T06:23:48.893Z,73.68
2022-10-13T06:26:35.561Z,73.58
2022-10-13T06:29:22.282Z,73.06
2022-10-13T06:32:08.921Z,73.39
2022-10-13T06:34:55.590Z,72.94
2022-10-13T06:37:42.330Z,72.36
2022-10-13T06:40:29.028Z,72.27
2022-10-13T06:43:15.781Z,72.74
2022-10-13T06:46:02.523Z,72.36
2022-10-13T06:48:49.908Z,72.60
2022-10-13T06:51:36.698Z,72.00
2022-10-13T06:54:23.336Z,72.24
2022-10-13T06:57:09.974Z,71.83
2022-10-13T06:59:56.821Z,71.87
2022-10-13T07:02:43.559Z,72.31
2022-10-13T07:05:30.551Z,72.04
2022-10-13T07:08:17.196Z,72.05
2022-10-13T07:11:15.910Z,72.19
2022-10-13T07:14:03.271Z,71.86
2022-10-13T07:16:50.305Z,72.25
2022-10-13T07:19:36.954Z,72.63
2022-10-13T07:22:23.578Z,72.82
2022-10-13T07:25:10.338Z,72.54
2022-10-13T07:27:58.227Z,72.73
2022-10-13T07:30:44.929Z,72.95
2022-10-13T07:33:31.583Z,73.04
2022-10-13T07:36:18.542Z,72.58
2022-10-13T07:39:05.190Z,73.29
2022-10-13T07:41:51.838Z,73.54
2022-10-13T07:44:38.526Z,73.18
2022-10-13T07:47:25.202Z,73.24
2022-10-13T07:50:11.981Z,73.36
2022-10-13T07:52:58.955Z,73.66
2022-10-13T07:55:45.777Z,73.81
2022-10-13T07:58:32.585Z,73.53
2022-10-13T08:01:19.337Z,73.50
2022-10-13T08:04:06.933Z,73.51
2022-10-13T08:06:53.604Z,73.61
2022-10-13T08:09:40.269Z,74.22
2022-10-13T08:12:26.934Z,74.06
2022-10-13T08:15:13.600Z,74.16
2022-10-13T08:18:00.242Z,74.42
2022-10-13T08:20:46.910Z,74.08
2022-10-13T08:23:33.575Z,74.11
2022-10-13T08:26:21.479Z,73.68
2022-10-13T08:29:24.299Z,74.05
2022-10-13T08:32:11.247Z,74.15
2022-10-13T08:34:57.988Z,74.14
2022-10-13T08:37:44.642Z,74.00
2022-10-13T08:40:31.589Z,74.19
2022-10-13T08:43:19.230Z,73.83
2022-10-13T08:46:05.879Z,74.08
2022-10-13T08:48:52.642Z,74.15
2022-10-13T08:51:39.827Z,74.04
2022-10-13T08:54:26.557Z,73.77
2022-10-13T08:57:13.229Z,73.70
2022-10-13T08:59:59.924Z,73.78
2022-10-13T09:02:46.568Z,73.80
2022-10-13T09:05:41.927Z,74.41
2022-10-13T09:08:28.643Z,73.58
2022-10-13T09:11:15.331Z,73.47
2022-10-13T09:14:03.863Z,73.64
2022-10-13T09:16:51.022Z,73.50
2022-10-13T09:19:37.685Z,73.09
2022-10-13T09:22:31.704Z,72.97
2022-10-13T09:25:22.139Z,73.46
2022-10-13T09:28:30.357Z,73.19
2022-10-13T09:31:30.482Z,72.94
2022-10-13T09:34:19.959Z,73.45
2022-10-13T09:37:11.835Z,73.14
2022-10-13T09:40:02.269Z,73.30
2022-10-13T09:42:51.975Z,73.19
2022-10-13T09:45:38.681Z,72.85
2022-10-13T09:48:26.933Z,73.22
2022-10-13T09:51:46.070Z,72.59
2022-10-13T09:54:35.470Z,73.17
2022-10-13T09:57:30.002Z,72.90
2022-10-13T10:00:17.035Z,72.58
2022-10-13T10:03:26.767Z,72.82
2022-10-13T10:06:14.493Z,72.25
2022-10-13T10:09:05.771Z,72.41
2022-10-13T10:11:52.439Z,72.57
2022-10-13T10:14:39.240Z,73.00
2022-10-13T10:17:35.064Z,73.09
2022-10-13T10:20:41.039Z,72.70
2022-10-13T10:23:47.920Z,73.00
2022-10-13T10:26:37.588Z,72.70
2022-10-13T10:29:26.495Z,73.06
2022-10-13T10:32:20.756Z,72.45
2022-10-13T10:35:26.663Z,72.89
2022-10-13T10:38:16.339Z,72.33
2022-10-13T10:41:23.401Z,72.16
2022-10-13T10:44:11.070Z,72.72
2022-10-13T10:46:59.684Z,72.26
2022-10-13T10:49:46.413Z,72.32
2022-10-13T10:52:48.313Z,72.36
2022-10-13T10:55:34.979Z,72.97
2022-10-13T10:58:27.581Z,72.82
2022-10-13T11:01:16.525Z,72.45
2022-10-13T11:04:21.957Z,71.95
2022-10-13T11:07:34.601Z,72.41
2022-10-13T11:10:21.669Z,72.21
2022-10-13T11:13:18.339Z,71.69
2022-10-13T11:16:22.894Z,71.87
2022-10-13T11:19:15.593Z,72.69
2022-10-13T11:22:02.187Z,71.79
2022-10-13T11:24:49.943Z,71.88
2022-10-13T11:27:36.542Z,71.85
2022-10-13T11:30:42.830Z,71.89
2022-10-13T11:33:35.282Z,72.23
2022-10-13T11:36:40.765Z,72.28
2022-10-13T11:39:27.994Z,72.28
2022-10-13T11:42:20.017Z,72.24
2022-10-13T11:45:13.432Z,72.34
2022-10-13T11:48:04.409Z,71.72
2022-10-13T11:51:03.393Z,72.25
2022-10-13T11:53:52.787Z,72.49
2022-10-13T11:56:48.660Z,72.01
2022-10-13T11:59:37.498Z,72.09
2022-10-13T12:02:25.409Z,72.07
2022-10-13T12:05:25.942Z,72.02
2022-10-13T12:08:12.591Z,71.91
2022-10-13T12:11:02.766Z,72.25
2022-10-13T12:13:49.430Z,72.05
2022-10-13T12:16:36.134Z,71.73
2022-10-13T12:19:27.310Z,72.33
2022-10-13T12:22:14.075Z,71.93
2022-10-13T12:25:05.045Z,72.05
2022-10-13T12:27:53.754Z,72.27
2022-10-13T12:30:40.398Z,71.73
2022-10-13T12:33:28.798Z,72.09
2022-10-13T12:36:19.115Z,71.89
2022-10-13T12:39:06.537Z,71.79
2022-10-13T12:41:53.953Z,71.37
2022-10-13T12:44:40.606Z,71.73
2022-10-13T12:47:38.630Z,71.82
2022-10-13T12:50:25.312Z,71.67
2022-10-13T12:53:13.808Z,71.95
2022-10-13T12:56:01.141Z,71.84
2022-10-13T12:58:47.803Z,70.93
2022-10-13T13:01:34.671Z,71.35
2022-10-13T13:04:21.332Z,71.63
2022-10-13T13:07:26.823Z,71.58
2022-10-13T13:10:14.869Z,71.23
2022-10-13T13:13:12.957Z,71.86
2022-10-13T13:16:16.091Z,71.56
2022-10-13T13:19:02.727Z,71.32
2022-10-13T13:21:49.468Z,71.80
2022-10-13T13:24:40.222Z,70.61
2022-10-13T13:27:27.970Z,70.90
2022-10-13T13:30:15.469Z,71.09
2022-10-13T13:33:02.196Z,70.74
2022-10-13T13:35:49.175Z,71.53
2022-10-13T13:38:36.046Z,70.69
2022-10-13T13:41:22.793Z,70.43
2022-10-13T13:44:09.452Z,71.05
2022-10-13T13:46:56.125Z,70.77
2022-10-13T13:49:42.897Z,70.91
2022-10-13T13:52:29.632Z,70.69
2022-10-13T13:55:16.430Z,70.62
2022-10-13T13:58:03.387Z,70.68
2022-10-13T14:00:50.111Z,70.74
2022-10-13T14:03:36.783Z,71.27
2022-10-13T14:06:23.455Z,70.68
2022-10-13T14:09:10.189Z,70.54
2022-10-13T14:11:56.912Z,70.61
2022-10-13T14:14:43.702Z,70.78
2022-10-13T14:17:30.425Z,70.75
2022-10-13T14:20:17.156Z,70.43
2022-10-13T14:23:03.795Z,70.62
2022-10-13T14:25:50.462Z,70.75
2022-10-13T14:28:37.158Z,70.42
2022-10-13T14:31:24.062Z,70.49
2022-10-13T14:34:10.696Z,70.37
2022-10-13T14:36:57.345Z,70.23
2022-10-13T14:39:44.181Z,70.51
2022-10-13T14:42:30.808Z,70.23
2022-10-13T14:45:17.869Z,70.45
2022-10-13T14:48:04.692Z,70.45
2022-10-13T14:50:51.322Z,70.50
2022-10-13T14:53:38.989Z,70.20
2022-10-13T14:56:26.422Z,70.41
2022-10-13T14:59:13.071Z,70.18
2022-10-13T15:01:59.963Z,69.96
2022-10-13T15:04:46.610Z,70.09
2022-10-13T15:07:34.033Z,70.31
2022-10-13T15:10:22.769Z,69.74
2022-10-13T15:13:09.402Z,70.12
2022-10-13T15:15:56.661Z,70.44
2022-10-13T15:18:43.673Z,70.09
2022-10-13T15:21:30.317Z,70.46
2022-10-13T15:24:17.014Z,69.67
2022-10-13T15:27:03.692Z,70.29
2022-10-13T15:29:50.393Z,70.17
2022-10-13T15:32:37.057Z,70.57
2022-10-13T15:35:23.977Z,70.23
2022-10-13T15:38:10.605Z,70.08
2022-10-13T15:41:00.730Z,69.55
2022-10-13T15:43:47.959Z,69.16
2022-10-13T15:46:34.739Z,69.01
2022-10-13T15:49:22.287Z,68.74
2022-10-13T15:52:09.095Z,68.99
2022-10-13T15:54:56.780Z,68.39
2022-10-13T15:57:43.585Z,68.41
2022-10-13T16:00:30.383Z,68.35
2022-10-13T16:03:17.564Z,67.99
2022-10-13T16:06:05.237Z,68.00
2022-10-13T16:08:51.913Z,68.03
2022-10-13T16:11:38.567Z,67.87
2022-10-13T16:14:25.256Z,67.72
2022-10-13T16:17:11.908Z,68.16
2022-10-13T16:19:58.584Z,68.05
2022-10-13T16:22:45.219Z,67.90
2022-10-13T16:25:32.076Z,68.04
2022-10-13T16:28:18.835Z,67.66
2022-10-13T16:31:08.403Z,67.67
2022-10-13T16:33:55.468Z,67.67
2022-10-13T16:36:42.098Z,68.07
2022-10-13T16:39:28.755Z,67.83
2022-10-13T16:42:15.407Z,67.87
2022-10-13T16:45:02.066Z,67.98
2022-10-13T16:47:51.685Z,68.04
2022-10-13T16:50:38.343Z,67.74
2022-10-13T16:53:28.007Z,67.50
2022-10-13T16:56:14.766Z,67.60
2022-10-13T16:59:02.222Z,68.01
2022-10-13T17:01:48.882Z,67.89
2022-10-13T17:04:35.570Z,67.57
2022-10-13T17:07:22.509Z,67.70
2022-10-13T17:10:09.803Z,67.98
2022-10-13T17:12:56.668Z,67.63
2022-10-13T17:15:50.262Z,67.85
2022-10-13T17:18:36.906Z,68.19
2022-10-13T17:21:23.560Z,68.17
2022-10-13T17:24:10.877Z,68.20
2022-10-13T17:26:57.531Z,67.77
2022-10-13T17:29:44.856Z,68.38
2022-10-13T17:32:31.615Z,67.94
2022-10-13T17:35:18.258Z,68.03
2022-10-13T17:38:05.654Z,68.35
2022-10-13T17:40:54.966Z,67.84
2022-10-13T17:43:45.594Z,67.95
2022-10-13T17:46:37.470Z,68.14
2022-10-13T17:49:24.849Z,68.18
2022-10-13T17:52:11.525Z,68.72
2022-10-13T17:54:58.169Z,68.40
2022-10-13T17:57:44.886Z,68.43
2022-10-13T18:00:36.600Z,68.32
2022-10-13T18:03:30.571Z,68.42
2022-10-13T18:06:17.629Z,68.59
2022-10-13T18:09:05.065Z,68.58
2022-10-13T18:11:52.610Z,69.03
2022-10-13T18:14:39.278Z,68.65
2022-10-13T18:17:25.922Z,68.38
2022-10-13T18:20:12.583Z,68.67
2022-10-13T18:22:59.661Z,68.13
2022-10-13T18:25:46.361Z,69.12
2022-10-13T18:28:33.898Z,68.74
2022-10-13T18:31:39.410Z,68.68
2022-10-13T18:34:26.062Z,68.78
2022-10-13T18:37:12.708Z,68.79
2022-10-13T18:39:59.387Z,69.09
2022-10-13T18:42:49.633Z,68.88
2022-10-13T18:45:39.592Z,68.44
2022-10-13T18:48:26.420Z,68.89
2022-10-13T18:51:14.022Z,69.66
2022-10-13T18:54:00.838Z,68.75
2022-10-13T18:56:47.499Z,68.82
2022-10-13T18:59:38.526Z,69.28
2022-10-13T19:02:25.232Z,69.78
2022-10-13T19:05:11.895Z,69.18
2022-10-13T19:07:58.567Z,68.71
2022-10-13T19:10:45.400Z,69.55
2022-10-13T19:13:32.784Z,69.16
2022-10-13T19:16:20.500Z,69.91
2022-10-13T19:19:09.020Z,69.65
2022-10-13T19:21:55.706Z,69.44
2022-10-13T19:24:42.370Z,69.66
2022-10-13T19:27:29.103Z,69.02
2022-10-13T19:30:16.048Z,69.54
2022-10-13T19:33:05.454Z,69.64
2022-10-13T19:35:52.230Z,69.88
2022-10-13T19:38:38.962Z,69.80
2022-10-13T19:41:27.161Z,69.57
2022-10-13T19:44:14.477Z,70.06
2022-10-13T19:47:01.126Z,69.83
2022-10-13T19:49:47.852Z,69.93
2022-10-13T19:52:34.496Z,70.12
2022-10-13T19:55:21.271Z,69.45
2022-10-13T19:58:07.963Z,70.16
2022-10-13T20:00:54.656Z,69.89
2022-10-13T20:03:41.437Z,70.00
2022-10-13T20:06:28.146Z,70.04
2022-10-13T20:09:15.003Z,69.65
2022-10-13T20:12:01.683Z,69.86
2022-10-13T20:14:48.488Z,70.63
2022-10-13T20:17:35.186Z,70.32
2022-10-13T20:20:22.601Z,70.24
2022-10-13T20:23:09.444Z,70.45
2022-10-13T20:25:56.107Z,70.88
2022-10-13T20:28:43.421Z,70.73
2022-10-13T20:31:30.222Z,70.00
2022-10-13T20:34:17.080Z,69.97
2022-10-13T20:37:03.763Z,69.98
2022-10-13T20:39:50.408Z,70.88
2022-10-13T20:42:37.087Z,70.39
2022-10-13T20:45:23.833Z,70.54
2022-10-13T20:48:10.679Z,70.28
2022-10-13T20:51:01.006Z,70.34
2022-10-13T20:53:48.429Z,70.54
2022-10-13T20:56:35.716Z,70.13
2022-10-13T20:59:22.435Z,71.11
2022-10-13T21:02:11.008Z,70.17
2022-10-13T21:04:57.654Z,70.88
2022-10-13T21:07:44.333Z,70.66
2022-10-13T21:10:31.000Z,70.65
2022-10-13T21:13:17.712Z,70.80
2022-10-13T21:16:08.762Z,70.80
2022-10-13T21:18:56.234Z,70.62
2022-10-13T21:21:43.044Z,70.94
2022-10-13T21:24:29.729Z,70.57
2022-10-13T21:27:16.399Z,71.53
2022-10-13T21:30:03.877Z,70.90
2022-10-13T21:32:50.583Z,71.10
2022-10-13T21:35:37.283Z,70.54
2022-10-13T21:38:24.086Z,71.58
2022-10-13T21:41:11.538Z,71.45
2022-10-13T21:43:58.273Z,71.14
2022-10-13T21:46:45.033Z,71.51
2022-10-13T21:49:32.029Z,70.96
2022-10-13T21:52:18.723Z,71.63
2022-10-13T21:55:05.630Z,71.18
2022-10-13T21:57:52.442Z,71.73
2022-10-13T22:00:39.481Z,71.76
2022-10-13T22:03:26.273Z,71.52
2022-10-13T22:06:19.100Z,71.61
2022-10-13T22:09:06.544Z,71.67
2022-10-13T22:11:56.456Z,71.81
2022-10-13T22:14:43.417Z,71.85
2022-10-13T22:17:30.135Z,71.69
2022-10-13T22:20:16.783Z,72.04
2022-10-13T22:23:03.437Z,71.72
2022-10-13T22:25:50.166Z,72.05
2022-10-13T22:28:37.580Z,72.10
2022-10-13T22:31:24.643Z,72.17
2022-10-13T22:34:13.838Z,72.02
2022-10-13T22:37:00.481Z,71.70
2022-10-13T22:39:47.163Z,71.90
2022-10-13T22:42:33.920Z,71.99
2022-10-13T22:45:20.553Z,72.34
2022-10-13T22:48:09.826Z,72.07
2022-10-13T22:50:56.605Z,72.19
2022-10-13T22:53:43.359Z,72.48
2022-10-13T22:56:30.932Z,72.36
2022-10-13T22:59:17.622Z,72.08
2022-10-13T23:02:04.267Z,72.17
2022-10-13T23:04:50.986Z,72.58
2022-10-13T23:07:37.631Z,72.17
2022-10-13T23:10:24.310Z,72.45
2022-10-13T23:13:11.085Z,72.33
2022-10-13T23:16:01.305Z,72.48
2022-10-13T23:18:48.004Z,72.42
2022-10-13T23:21:34.634Z,72.70
2022-10-13T23:24:21.335Z,72.75
2022-10-13T23:27:08.003Z,72.81
2022-10-13T23:29:54.650Z,72.45
2022-10-13T23:32:41.290Z,72.85
2022-10-13T23:35:27.938Z,72.50
2022-10-13T23:38:14.590Z,72.44
2022-10-13T23:41:02.098Z,72.66
2022-10-13T23:43:48.793Z,72.74
2022-10-13T23:46:35.438Z,72.78
2022-10-13T23:49:22.137Z,72.63
2022-10-13T23:52:11.065Z,72.78
2022-10-13T23:54:57.864Z,72.58
2022-10-13T23:57:44.497Z,72.40
